New Douglas, Illinois
Current Conditions -  °F | °C
As of 2:15 PM on Monday 22 Dec 2014 (Local Time) from K3LF Reporting Station
Drizzle Drizzle  
Wind Chill: 38°   Ceiling: 400
Heat Index: 44°   Visibility: 3mi
Dew Point: 42°   Wind: 12mph
Humidity: 94%   Direction: 140°SE
Pressure: 29.6"   Gusts: 18mph
Location:  38.97°N, 89.67°W
Report Text: K3LF 222015Z AUTO 14010G16KT 3SM -DZ OVC004 07/06 A2960 RMK AO2 T00650056
Loading
Personal Weather Stations






























Interactive Weather Map New forecast layout! Learn more

10-Day Weather Forecast

Advertisements
Track Severe Weather on mobile